createdAt,value
2019-04-16T00:01:03.622Z,10.30
2019-04-16T00:03:31.651Z,9.97
2019-04-16T00:06:03.183Z,10.53
2019-04-16T00:08:35.423Z,10.27
2019-04-16T00:11:07.930Z,10.60
2019-04-16T00:13:49.396Z,9.97
2019-04-16T00:16:16.995Z,10.83
2019-04-16T00:18:56.598Z,10.37
2019-04-16T00:21:32.479Z,10.43
2019-04-16T00:24:19.645Z,9.83
2019-04-16T00:26:48.478Z,10.07
2019-04-16T00:29:16.132Z,10.40
2019-04-16T00:31:47.574Z,10.53
2019-04-16T00:34:15.220Z,10.37
2019-04-16T00:36:42.868Z,10.57
2019-04-16T00:39:10.523Z,10.40
2019-04-16T00:41:38.152Z,10.77
2019-04-16T00:44:05.781Z,10.87
2019-04-16T00:46:33.400Z,10.80
2019-04-16T00:49:01.026Z,10.13
2019-04-16T00:51:28.653Z,9.83
2019-04-16T00:53:56.269Z,10.40
2019-04-16T00:56:23.926Z,11.10
2019-04-16T00:58:52.215Z,10.67
2019-04-16T01:01:20.681Z,11.17
2019-04-16T01:03:48.292Z,9.97
2019-04-16T01:06:17.245Z,10.80
2019-04-16T01:08:54.322Z,11.03
2019-04-16T01:11:14.285Z,10.23
2019-04-16T01:13:42.199Z,11.63
2019-04-16T01:16:09.869Z,10.57
2019-04-16T01:18:38.693Z,10.83
2019-04-16T01:21:06.927Z,10.80
2019-04-16T01:23:34.981Z,10.47
2019-04-16T01:26:02.633Z,10.93
2019-04-16T01:28:32.724Z,10.73
2019-04-16T01:31:10.818Z,11.27
2019-04-16T01:34:15.302Z,10.53
2019-04-16T01:37:00.562Z,10.47
2019-04-16T01:39:28.686Z,10.77
2019-04-16T01:41:56.321Z,10.63
2019-04-16T01:44:28.597Z,10.73
2019-04-16T01:46:53.363Z,11.10
2019-04-16T01:49:20.988Z,10.73
2019-04-16T01:51:48.670Z,10.73
2019-04-16T01:54:16.266Z,11.00
2019-04-16T01:56:43.917Z,11.53
2019-04-16T01:59:11.560Z,10.33
2019-04-16T02:01:40.342Z,11.10
2019-04-16T02:04:08.608Z,10.63
2019-04-16T02:06:36.230Z,10.60
2019-04-16T02:09:04.831Z,11.03
2019-04-16T02:11:32.466Z,10.57
2019-04-16T02:14:00.065Z,10.77
2019-04-16T02:16:27.698Z,11.13
2019-04-16T02:18:55.333Z,11.63
2019-04-16T02:21:23.002Z,10.50
2019-04-16T02:23:50.595Z,11.10
2019-04-16T02:26:20.615Z,10.73
2019-04-16T02:28:47.637Z,10.80
2019-04-16T02:31:16.379Z,11.00
2019-04-16T02:33:44.227Z,10.97
2019-04-16T02:36:12.092Z,11.30
2019-04-16T02:38:46.377Z,11.33
2019-04-16T02:41:09.158Z,11.03
2019-04-16T02:43:40.987Z,10.93
2019-04-16T02:46:06.268Z,11.73
2019-04-16T02:48:33.884Z,10.20
2019-04-16T02:51:10.790Z,11.83
2019-04-16T02:53:49.710Z,10.67
2019-04-16T02:56:35.789Z,11.20
2019-04-16T02:59:12.925Z,11.07
2019-04-16T03:01:58.850Z,11.33
2019-04-16T03:04:30.627Z,10.77
2019-04-16T03:07:02.693Z,11.70
2019-04-16T03:09:27.857Z,10.63
2019-04-16T03:11:55.474Z,11.27
2019-04-16T03:14:23.066Z,11.20
2019-04-16T03:17:00.331Z,11.13
2019-04-16T03:19:31.574Z,11.17
2019-04-16T03:22:01.918Z,11.37
2019-04-16T03:24:28.643Z,10.97
2019-04-16T03:26:56.343Z,11.47
2019-04-16T03:29:23.987Z,11.50
2019-04-16T03:31:57.438Z,10.80
2019-04-16T03:34:22.058Z,11.47
2019-04-16T03:36:50.370Z,11.37
2019-04-16T03:39:18.033Z,11.43
2019-04-16T03:41:45.713Z,11.40
2019-04-16T03:44:13.342Z,10.83
2019-04-16T03:46:46.002Z,12.27
2019-04-16T03:49:10.395Z,12.17
2019-04-16T03:51:38.036Z,12.23
2019-04-16T03:54:05.964Z,11.77
2019-04-16T03:56:33.602Z,11.87
2019-04-16T03:59:01.251Z,11.73
2019-04-16T04:01:28.884Z,12.10
2019-04-16T04:03:57.549Z,12.20
2019-04-16T04:06:25.958Z,11.57
2019-04-16T04:08:53.593Z,12.27
2019-04-16T04:11:21.277Z,12.07
2019-04-16T04:13:50.264Z,11.93
2019-04-16T04:16:18.535Z,12.43
2019-04-16T04:18:46.228Z,11.37
2019-04-16T04:21:13.867Z,12.37
2019-04-16T04:23:41.522Z,13.23
2019-04-16T04:26:10.204Z,12.00
2019-04-16T04:28:37.945Z,12.10
2019-04-16T04:31:05.625Z,11.27
2019-04-16T04:33:40.686Z,11.97
2019-04-16T04:36:06.672Z,12.67
2019-04-16T04:38:37.533Z,12.43
2019-04-16T04:41:04.142Z,12.73
2019-04-16T04:43:32.127Z,12.97
2019-04-16T04:46:00.394Z,12.67
2019-04-16T04:48:28.053Z,11.77
2019-04-16T04:50:55.700Z,13.10
2019-04-16T04:53:23.325Z,11.83
2019-04-16T04:55:50.980Z,12.13
2019-04-16T04:58:19.897Z,11.33
2019-04-16T05:00:47.688Z,12.80
2019-04-16T05:03:26.718Z,13.33
2019-04-16T05:05:56.054Z,12.60
2019-04-16T05:08:24.382Z,12.37
2019-04-16T05:10:59.006Z,12.53
2019-04-16T05:13:23.978Z,12.57
2019-04-16T05:15:50.916Z,12.20
2019-04-16T05:18:18.550Z,12.10
2019-04-16T05:20:47.030Z,12.77
2019-04-16T05:23:15.285Z,12.67
2019-04-16T05:25:42.924Z,12.60
2019-04-16T05:28:12.186Z,13.00
2019-04-16T05:30:39.972Z,12.80
2019-04-16T05:33:07.592Z,12.93
2019-04-16T05:35:35.204Z,12.83
2019-04-16T05:38:02.823Z,11.57
2019-04-16T05:40:35.115Z,12.63
2019-04-16T05:43:01.047Z,12.67
2019-04-16T05:45:28.699Z,12.33
2019-04-16T05:47:56.339Z,13.00
2019-04-16T05:50:28.502Z,12.83
2019-04-16T05:52:53.431Z,12.80
2019-04-16T05:55:25.932Z,12.93
2019-04-16T05:57:57.898Z,12.50
2019-04-16T06:01:01.560Z,14.43
2019-04-16T06:03:29.182Z,12.57
2019-04-16T06:05:59.358Z,13.43
2019-04-16T06:08:26.288Z,13.57
2019-04-16T06:10:57.237Z,12.97
2019-04-16T06:13:44.572Z,13.40
2019-04-16T06:16:25.179Z,13.63
2019-04-16T06:19:16.872Z,13.20
2019-04-16T06:22:03.052Z,13.67
2019-04-16T06:24:52.960Z,12.67
2019-04-16T06:27:29.040Z,13.03
2019-04-16T06:30:14.991Z,12.70
2019-04-16T06:32:49.969Z,13.07
2019-04-16T06:35:43.454Z,13.37
2019-04-16T06:38:22.258Z,12.50
2019-04-16T06:41:03.382Z,13.03
2019-04-16T06:43:36.064Z,13.20
2019-04-16T06:46:20.759Z,12.67
2019-04-16T06:49:17.294Z,13.07
2019-04-16T06:52:15.892Z,12.70
2019-04-16T06:55:03.686Z,13.23
2019-04-16T06:57:50.014Z,13.20
2019-04-16T07:00:38.386Z,13.93
2019-04-16T07:03:27.012Z,12.63
2019-04-16T07:06:09.655Z,12.50
2019-04-16T07:08:49.861Z,12.43
2019-04-16T07:11:17.474Z,13.03
2019-04-16T07:13:45.284Z,13.07
2019-04-16T07:16:13.068Z,12.87
2019-04-16T07:18:40.984Z,14.17
2019-04-16T07:21:08.744Z,12.77
2019-04-16T07:23:36.607Z,13.23
2019-04-16T07:26:04.890Z,12.50
2019-04-16T07:28:58.499Z,11.87
2019-04-16T07:31:39.891Z,11.87
2019-04-16T07:34:25.974Z,12.60
2019-04-16T07:37:18.850Z,13.70
2019-04-16T07:39:56.752Z,13.10
2019-04-16T07:42:29.960Z,14.13
2019-04-16T07:45:17.082Z,12.90
2019-04-16T07:48:16.418Z,13.37
2019-04-16T07:51:12.775Z,13.53
2019-04-16T07:54:06.238Z,13.80
2019-04-16T07:56:34.604Z,13.57
2019-04-16T07:59:02.279Z,12.70
2019-04-16T08:01:30.183Z,12.93
2019-04-16T08:04:01.471Z,12.63
2019-04-16T08:06:28.104Z,12.60
2019-04-16T08:08:57.100Z,13.47
2019-04-16T08:11:25.465Z,13.07
2019-04-16T08:13:53.104Z,12.53
2019-04-16T08:16:20.722Z,12.93
2019-04-16T08:18:49.786Z,12.77
2019-04-16T08:21:17.524Z,11.73
2019-04-16T08:23:53.113Z,12.07
2019-04-16T08:26:20.756Z,11.97
2019-04-16T08:28:48.369Z,12.63
2019-04-16T08:31:22.412Z,12.27
2019-04-16T08:33:50.078Z,11.90
2019-04-16T08:36:17.722Z,12.63
2019-04-16T08:38:45.409Z,12.90
2019-04-16T08:41:13.390Z,12.73
2019-04-16T08:44:03.497Z,12.80
2019-04-16T08:46:30.049Z,13.37
2019-04-16T08:48:58.111Z,13.47
2019-04-16T08:51:30.795Z,13.27
2019-04-16T08:53:55.383Z,13.43
2019-04-16T08:56:23.046Z,13.17
2019-04-16T08:58:50.715Z,12.77
2019-04-16T09:01:23.694Z,13.33
2019-04-16T09:03:51.379Z,13.47
2019-04-16T09:06:19.063Z,13.80
2019-04-16T09:09:18.649Z,13.40
2019-04-16T09:11:50.819Z,14.40
2019-04-16T09:14:20.874Z,13.10
2019-04-16T09:17:19.968Z,13.03
2019-04-16T09:19:58.277Z,13.63
2019-04-16T09:22:25.922Z,12.97
2019-04-16T09:25:12.489Z,13.40
2019-04-16T09:27:41.276Z,12.50
2019-04-16T09:30:37.355Z,13.50
2019-04-16T09:33:08.868Z,13.40
2019-04-16T09:36:08.205Z,13.60
2019-04-16T09:38:47.277Z,13.63
2019-04-16T09:41:24.696Z,13.07
2019-04-16T09:43:57.178Z,13.60
2019-04-16T09:46:48.769Z,14.00
2019-04-16T09:48:52.957Z,14.10
2019-04-16T09:51:21.380Z,13.87
2019-04-16T09:53:49.214Z,14.70
2019-04-16T09:56:29.007Z,13.80
2019-04-16T09:58:56.837Z,13.27
2019-04-16T10:01:28.542Z,14.37
2019-04-16T10:03:56.159Z,14.40
2019-04-16T10:06:23.818Z,14.93
2019-04-16T10:08:51.451Z,13.90
2019-04-16T10:11:19.449Z,13.88
2019-04-16T10:13:47.361Z,14.18
2019-04-16T10:16:15.124Z,14.07
2019-04-16T10:18:42.756Z,14.38
2019-04-16T10:21:10.446Z,14.38
2019-04-16T10:23:48.143Z,14.83
2019-04-16T10:26:16.190Z,14.53
2019-04-16T10:28:43.815Z,15.03
2019-04-16T10:31:12.836Z,15.85
2019-04-16T10:33:40.506Z,15.68
2019-04-16T10:36:27.689Z,15.25
2019-04-16T10:39:07.804Z,14.70
2019-04-16T10:42:07.069Z,14.53
2019-04-16T10:44:52.821Z,15.00
2019-04-16T10:47:45.869Z,14.85
2019-04-16T10:50:51.945Z,14.95
2019-04-16T10:53:45.382Z,15.10
2019-04-16T10:56:38.795Z,14.87
2019-04-16T10:59:19.061Z,14.65
2019-04-16T11:01:52.521Z,14.60
2019-04-16T11:04:46.498Z,14.33
2019-04-16T11:07:17.818Z,14.55
2019-04-16T11:09:45.506Z,15.05
2019-04-16T11:12:13.285Z,14.40
2019-04-16T11:14:40.905Z,14.13
2019-04-16T11:17:08.549Z,14.18
2019-04-16T11:19:37.273Z,13.28
2019-04-16T11:22:05.256Z,13.72
2019-04-16T11:24:33.438Z,15.18
2019-04-16T11:27:01.196Z,14.73
2019-04-16T11:29:28.846Z,13.43
2019-04-16T11:32:04.047Z,12.47
2019-04-16T11:34:31.679Z,12.18
2019-04-16T11:36:59.397Z,12.47
2019-04-16T11:39:27.022Z,11.75
2019-04-16T11:41:54.746Z,11.65
2019-04-16T11:44:22.404Z,11.57
2019-04-16T11:46:50.113Z,12.15
2019-04-16T11:49:17.731Z,11.45
2019-04-16T11:51:45.346Z,10.95
2019-04-16T11:54:12.994Z,12.03
2019-04-16T11:56:43.531Z,12.45
2019-04-16T11:59:11.220Z,12.05
2019-04-16T12:02:02.095Z,11.68
2019-04-16T12:04:47.972Z,10.90
2019-04-16T12:07:37.891Z,10.48
2019-04-16T12:10:28.904Z,10.78
2019-04-16T12:13:24.760Z,11.05
2019-04-16T12:16:17.918Z,11.00
2019-04-16T12:19:04.065Z,11.35
2019-04-16T12:21:43.534Z,11.18
2019-04-16T12:24:26.942Z,10.82
2019-04-16T12:27:12.352Z,10.18
2019-04-16T12:30:02.544Z,10.25
2019-04-16T12:32:52.929Z,11.08
2019-04-16T12:35:34.729Z,10.93
2019-04-16T12:38:13.149Z,9.90
2019-04-16T12:41:05.474Z,9.68
2019-04-16T12:43:38.422Z,9.18
2019-04-16T12:46:34.863Z,9.73
2019-04-16T12:49:20.348Z,8.83
2019-04-16T12:52:07.110Z,9.33
2019-04-16T12:55:23.538Z,9.93
2019-04-16T12:58:11.896Z,8.95
2019-04-16T13:01:19.736Z,9.98
2019-04-16T13:04:03.485Z,10.10
2019-04-16T13:07:02.578Z,9.70
2019-04-16T13:09:52.446Z,8.53
2019-04-16T13:12:38.517Z,7.60
2019-04-16T13:15:28.400Z,8.23
2019-04-16T13:18:24.626Z,7.87
2019-04-16T13:21:20.913Z,8.40
2019-04-16T13:23:55.719Z,8.68
2019-04-16T13:26:29.437Z,8.45
2019-04-16T13:28:57.564Z,7.92
2019-04-16T13:31:25.174Z,7.75
2019-04-16T13:33:52.806Z,7.50
2019-04-16T13:36:20.437Z,6.95
2019-04-16T13:38:58.954Z,7.60
2019-04-16T13:41:27.158Z,7.10
2019-04-16T13:43:59.510Z,7.33
2019-04-16T13:46:29.489Z,7.20
2019-04-16T13:49:12.047Z,7.65
2019-04-16T13:51:39.701Z,7.37
2019-04-16T13:54:36.084Z,6.92
2019-04-16T13:57:08.478Z,7.87
2019-04-16T13:59:55.663Z,7.95
2019-04-16T14:02:41.992Z,6.78
2019-04-16T14:05:10.956Z,7.35
2019-04-16T14:07:40.856Z,8.48
2019-04-16T14:10:08.644Z,8.68
2019-04-16T14:12:42.411Z,8.13
2019-04-16T14:15:07.043Z,8.93
2019-04-16T14:17:35.106Z,8.15
2019-04-16T14:20:05.273Z,9.25
2019-04-16T14:22:32.930Z,9.10
2019-04-16T14:25:00.577Z,9.08
2019-04-16T14:27:28.231Z,9.05
2019-04-16T14:29:59.041Z,8.88
2019-04-16T14:32:25.760Z,8.98
2019-04-16T14:34:55.806Z,8.88
2019-04-16T14:37:23.472Z,7.65
2019-04-16T14:40:05.953Z,7.65
2019-04-16T14:42:33.569Z,9.85
2019-04-16T14:45:11.060Z,9.15
2019-04-16T14:47:38.734Z,10.05
2019-04-16T14:50:06.341Z,9.48
2019-04-16T14:52:34.019Z,9.80
2019-04-16T14:55:15.934Z,10.55
2019-04-16T14:58:03.479Z,10.20
2019-04-16T15:00:49.448Z,9.43
2019-04-16T15:03:30.433Z,8.95
2019-04-16T15:06:09.477Z,10.18
2019-04-16T15:08:46.696Z,11.97
2019-04-16T15:11:28.819Z,12.60
2019-04-16T15:14:18.698Z,11.65
2019-04-16T15:17:13.001Z,11.93
2019-04-16T15:20:03.531Z,12.82
2019-04-16T15:22:39.617Z,12.07
2019-04-16T15:25:42.195Z,11.78
2019-04-16T15:28:17.931Z,9.95
2019-04-16T15:30:52.610Z,12.65
2019-04-16T15:33:39.798Z,11.50
2019-04-16T15:36:11.415Z,11.50
2019-04-16T15:39:02.905Z,11.40
2019-04-16T15:41:49.111Z,12.58
2019-04-16T15:44:23.630Z,11.85
2019-04-16T15:47:13.340Z,10.98
2019-04-16T15:49:55.616Z,11.12
2019-04-16T15:52:46.406Z,11.18
2019-04-16T15:55:32.894Z,10.65
2019-04-16T15:58:18.711Z,8.53
2019-04-16T16:01:04.465Z,9.18
2019-04-16T16:04:06.584Z,8.83
2019-04-16T16:06:36.530Z,8.05
2019-04-16T16:09:31.622Z,7.97
2019-04-16T16:12:11.020Z,8.38
2019-04-16T16:14:39.132Z,8.85
2019-04-16T16:17:06.774Z,11.00
2019-04-16T16:19:34.401Z,11.70
2019-04-16T16:22:02.068Z,9.85
2019-04-16T16:24:29.695Z,8.05
2019-04-16T16:26:57.344Z,7.97
2019-04-16T16:29:25.006Z,8.28
2019-04-16T16:31:52.609Z,8.20
2019-04-16T16:34:20.238Z,8.53
2019-04-16T16:36:47.871Z,8.40
2019-04-16T16:39:15.523Z,8.20
2019-04-16T16:41:46.599Z,8.45
2019-04-16T16:44:14.500Z,7.97
2019-04-16T16:47:07.636Z,9.10
2019-04-16T16:49:35.261Z,8.33
2019-04-16T16:52:22.238Z,7.90
2019-04-16T16:54:50.427Z,8.13
2019-04-16T16:57:29.054Z,7.67
2019-04-16T17:00:14.518Z,7.72
2019-04-16T17:02:48.390Z,8.48
2019-04-16T17:05:24.808Z,7.65
2019-04-16T17:07:53.657Z,7.63
2019-04-16T17:10:21.855Z,8.28
2019-04-16T17:12:49.478Z,8.37
2019-04-16T17:15:17.117Z,7.20
2019-04-16T17:17:44.758Z,6.70
2019-04-16T17:20:12.456Z,7.30
2019-04-16T17:22:40.976Z,6.97
2019-04-16T17:25:11.970Z,6.97
2019-04-16T17:27:50.655Z,6.40
2019-04-16T17:30:07.944Z,6.30
2019-04-16T17:32:35.561Z,6.73
2019-04-16T17:35:06.395Z,6.93
2019-04-16T17:37:32.876Z,6.17
2019-04-16T17:40:17.188Z,6.00
2019-04-16T17:42:45.088Z,5.73
2019-04-16T17:45:30.814Z,5.57
2019-04-16T17:48:18.108Z,5.30
2019-04-16T17:51:07.057Z,5.23
2019-04-16T17:53:44.717Z,5.23
2019-04-16T17:56:30.662Z,5.20
2019-04-16T17:59:01.242Z,4.60
2019-04-16T18:02:06.760Z,4.60
2019-04-16T18:04:52.444Z,4.20
2019-04-16T18:07:38.181Z,4.33
2019-04-16T18:10:22.705Z,3.33
2019-04-16T18:13:22.202Z,3.30
2019-04-16T18:16:12.208Z,3.30
2019-04-16T18:18:43.109Z,3.07
2019-04-16T18:21:19.525Z,3.30
2019-04-16T18:24:02.069Z,3.83
2019-04-16T18:27:07.127Z,3.43
2019-04-16T18:30:05.173Z,3.57
2019-04-16T18:32:45.785Z,3.50
2019-04-16T18:35:22.617Z,3.50
2019-04-16T18:38:02.993Z,3.60
2019-04-16T18:40:50.088Z,3.73
2019-04-16T18:43:55.314Z,3.17
2019-04-16T18:46:40.897Z,3.00
2019-04-16T18:49:14.313Z,3.00
2019-04-16T18:51:40.792Z,2.90
2019-04-16T18:54:08.435Z,2.57
2019-04-16T18:56:36.005Z,2.73
2019-04-16T18:59:03.666Z,2.67
2019-04-16T19:01:32.628Z,3.23
2019-04-16T19:04:01.079Z,3.20
2019-04-16T19:06:28.588Z,2.93
2019-04-16T19:08:56.426Z,3.10
2019-04-16T19:11:24.055Z,3.07
2019-04-16T19:13:51.655Z,2.93
2019-04-16T19:16:19.221Z,3.27
2019-04-16T19:18:46.799Z,3.30
2019-04-16T19:21:14.368Z,2.73
2019-04-16T19:23:41.975Z,2.57
2019-04-16T19:26:09.915Z,2.70
2019-04-16T19:28:39.633Z,2.30
2019-04-16T19:31:06.936Z,2.10
2019-04-16T19:33:38.351Z,2.23
2019-04-16T19:36:04.011Z,2.33
2019-04-16T19:38:31.565Z,2.60
2019-04-16T19:40:59.143Z,2.20
2019-04-16T19:43:28.335Z,2.20
2019-04-16T19:45:56.087Z,2.10
2019-04-16T19:48:35.170Z,2.53
2019-04-16T19:50:53.413Z,2.13
2019-04-16T19:53:21.021Z,2.07
2019-04-16T19:55:48.594Z,2.00
2019-04-16T19:58:16.186Z,2.00
2019-04-16T20:00:43.766Z,2.00
2019-04-16T20:03:15.626Z,2.00
2019-04-16T20:05:43.615Z,2.30
2019-04-16T20:08:11.228Z,2.20
2019-04-16T20:10:38.817Z,2.00
2019-04-16T20:13:06.393Z,2.33
2019-04-16T20:15:33.987Z,2.30
2019-04-16T20:18:01.684Z,2.20
2019-04-16T20:20:29.283Z,2.47
2019-04-16T20:22:56.938Z,2.10
2019-04-16T20:25:24.543Z,2.30
2019-04-16T20:27:52.100Z,2.60
2019-04-16T20:30:23.062Z,2.43
2019-04-16T20:32:49.142Z,2.57
2019-04-16T20:35:18.771Z,2.30
2019-04-16T20:37:46.067Z,2.50
2019-04-16T20:40:14.642Z,2.13
2019-04-16T20:42:43.053Z,2.40
2019-04-16T20:45:11.577Z,2.20
2019-04-16T20:47:40.135Z,2.30
2019-04-16T20:50:07.803Z,2.27
2019-04-16T20:52:35.421Z,2.40
2019-04-16T20:55:03.071Z,2.20
2019-04-16T20:57:30.668Z,2.37
2019-04-16T20:59:59.252Z,2.20
2019-04-16T21:02:28.668Z,2.30
2019-04-16T21:04:57.794Z,2.20
2019-04-16T21:07:25.640Z,2.33
2019-04-16T21:09:53.218Z,2.40
2019-04-16T21:12:20.808Z,2.53
2019-04-16T21:14:50.826Z,2.20
2019-04-16T21:17:18.703Z,2.40
2019-04-16T21:19:47.784Z,2.27
2019-04-16T21:22:16.673Z,2.00
2019-04-16T21:24:44.464Z,2.40
2019-04-16T21:27:12.295Z,2.37
2019-04-16T21:29:39.876Z,2.10
2019-04-16T21:32:10.798Z,2.60
2019-04-16T21:34:50.816Z,2.40
2019-04-16T21:37:29.006Z,2.33
2019-04-16T21:39:58.599Z,2.37
2019-04-16T21:42:27.505Z,2.27
2019-04-16T21:44:55.072Z,2.50
2019-04-16T21:47:23.637Z,2.47
2019-04-16T21:49:52.279Z,2.67
2019-04-16T21:52:23.268Z,2.70
2019-04-16T21:54:49.297Z,2.53
2019-04-16T21:57:16.906Z,2.77
2019-04-16T21:59:44.455Z,2.87
2019-04-16T22:02:22.946Z,3.20
2019-04-16T22:04:50.633Z,3.10
2019-04-16T22:07:18.180Z,2.80
2019-04-16T22:09:45.715Z,3.07
2019-04-16T22:12:15.539Z,3.70
2019-04-16T22:14:42.674Z,3.70
2019-04-16T22:17:10.217Z,4.00
2019-04-16T22:19:53.021Z,4.07
2019-04-16T22:22:07.181Z,4.57
2019-04-16T22:24:34.777Z,4.17
2019-04-16T22:27:06.073Z,4.30
2019-04-16T22:29:31.738Z,4.57
2019-04-16T22:31:59.299Z,5.23
2019-04-16T22:34:26.891Z,5.20
2019-04-16T22:36:54.425Z,4.37
2019-04-16T22:39:51.208Z,4.23
2019-04-16T22:42:42.013Z,3.50
2019-04-16T22:45:39.734Z,3.40
2019-04-16T22:48:07.399Z,3.23
2019-04-16T22:50:38.127Z,3.20
2019-04-16T22:53:04.661Z,3.33
2019-04-16T22:55:32.279Z,3.37
2019-04-16T22:58:03.552Z,3.10
2019-04-16T23:00:32.018Z,3.03
2019-04-16T23:02:59.592Z,3.20
2019-04-16T23:05:27.785Z,3.03
2019-04-16T23:07:56.649Z,2.90
2019-04-16T23:10:24.170Z,3.23
2019-04-16T23:12:51.759Z,3.50
2019-04-16T23:15:19.362Z,3.13
2019-04-16T23:17:46.948Z,3.23
2019-04-16T23:20:28.684Z,3.17
2019-04-16T23:22:46.533Z,3.40
2019-04-16T23:25:13.226Z,3.40
2019-04-16T23:27:42.096Z,3.40
2019-04-16T23:30:09.770Z,3.47
2019-04-16T23:32:37.330Z,3.30
2019-04-16T23:35:09.768Z,3.30
2019-04-16T23:37:34.285Z,3.43
2019-04-16T23:40:01.905Z,3.30
2019-04-16T23:42:29.452Z,3.00
2019-04-16T23:45:15.312Z,3.50
2019-04-16T23:48:01.407Z,3.40
2019-04-16T23:50:44.961Z,3.40
2019-04-16T23:53:18.800Z,3.60
2019-04-16T23:56:17.891Z,3.33
2019-04-16T23:58:53.442Z,3.73
